createdAt,value
2018-11-27T00:00:52.301Z,998.61
2018-11-27T00:01:52.287Z,998.62
2018-11-27T00:02:52.322Z,998.57
2018-11-27T00:03:52.258Z,998.55
2018-11-27T00:04:52.247Z,998.64
2018-11-27T00:05:52.246Z,998.62
2018-11-27T00:06:52.229Z,998.62
2018-11-27T00:07:52.218Z,998.65
2018-11-27T00:08:52.252Z,998.66
2018-11-27T00:09:52.193Z,998.61
2018-11-27T00:10:52.184Z,998.68
2018-11-27T00:11:52.174Z,998.71
2018-11-27T00:12:52.171Z,998.65
2018-11-27T00:13:52.155Z,998.64
2018-11-27T00:14:52.176Z,998.61
2018-11-27T00:15:52.135Z,998.69
2018-11-27T00:16:52.133Z,998.67
2018-11-27T00:17:52.119Z,998.63
2018-11-27T00:18:52.100Z,998.67
2018-11-27T00:19:52.087Z,998.71
2018-11-27T00:20:52.122Z,998.65
2018-11-27T00:21:52.076Z,998.69
2018-11-27T00:22:52.065Z,998.70
2018-11-27T00:24:03.098Z,998.79
2018-11-27T00:24:52.036Z,998.72
2018-11-27T00:25:52.024Z,998.81
2018-11-27T00:26:52.187Z,998.76
2018-11-27T00:27:52.001Z,998.74
2018-11-27T00:28:51.994Z,998.78
2018-11-27T00:29:51.985Z,998.76
2018-11-27T00:30:51.975Z,998.75
2018-11-27T00:31:51.962Z,998.70
2018-11-27T00:32:51.968Z,998.73
2018-11-27T00:33:51.942Z,998.64
2018-11-27T00:34:51.937Z,998.75
2018-11-27T00:35:51.915Z,998.70
2018-11-27T00:36:51.913Z,998.76
2018-11-27T00:37:51.900Z,998.83
2018-11-27T00:38:51.919Z,998.74
2018-11-27T00:39:51.878Z,998.75
2018-11-27T00:40:51.866Z,998.77
2018-11-27T00:41:51.862Z,998.78
2018-11-27T00:42:51.848Z,998.85
2018-11-27T00:43:51.835Z,998.75
2018-11-27T00:44:51.866Z,998.88
2018-11-27T00:45:51.817Z,998.89
2018-11-27T00:46:51.806Z,998.91
2018-11-27T00:47:51.791Z,998.76
2018-11-27T00:48:51.782Z,998.86
2018-11-27T00:49:51.768Z,998.89
2018-11-27T00:50:51.936Z,998.83
2018-11-27T00:51:51.750Z,998.87
2018-11-27T00:52:51.740Z,998.89
2018-11-27T00:53:51.733Z,998.87
2018-11-27T00:55:02.977Z,998.84
2018-11-27T00:55:51.708Z,998.87
2018-11-27T00:56:51.792Z,998.86
2018-11-27T00:57:51.686Z,998.84
2018-11-27T00:58:51.680Z,998.92
2018-11-27T00:59:51.664Z,998.94
2018-11-27T01:00:51.653Z,998.92
2018-11-27T01:01:51.647Z,998.97
2018-11-27T01:02:51.653Z,999.02
2018-11-27T01:03:51.622Z,998.91
2018-11-27T01:04:51.607Z,998.96
2018-11-27T01:05:51.605Z,998.90
2018-11-27T01:06:51.601Z,998.89
2018-11-27T01:07:51.589Z,998.88
2018-11-27T01:08:51.741Z,998.93
2018-11-27T01:09:51.554Z,998.91
2018-11-27T01:10:51.547Z,998.92
2018-11-27T01:11:51.546Z,998.94
2018-11-27T01:12:51.535Z,998.94
2018-11-27T01:13:51.515Z,998.89
2018-11-27T01:14:51.580Z,998.89
2018-11-27T01:15:51.500Z,998.87
2018-11-27T01:16:51.483Z,998.92
2018-11-27T01:17:51.472Z,998.97
2018-11-27T01:18:51.467Z,998.98
2018-11-27T01:19:51.454Z,998.92
2018-11-27T01:20:51.490Z,999.01
2018-11-27T01:21:51.426Z,998.95
2018-11-27T01:22:51.426Z,998.93
2018-11-27T01:23:51.408Z,998.89
2018-11-27T01:24:51.402Z,998.85
2018-11-27T01:26:02.308Z,998.97
2018-11-27T01:26:51.372Z,998.92
2018-11-27T01:27:51.370Z,998.91
2018-11-27T01:28:51.355Z,998.97
2018-11-27T01:29:51.346Z,998.96
2018-11-27T01:30:51.335Z,998.97
2018-11-27T01:31:51.365Z,998.96
2018-11-27T01:32:51.310Z,998.86
2018-11-27T01:33:51.303Z,998.94
2018-11-27T01:34:51.293Z,998.88
2018-11-27T01:35:51.282Z,998.88
2018-11-27T01:36:51.267Z,998.85
2018-11-27T01:37:51.294Z,998.77
2018-11-27T01:38:51.245Z,998.85
2018-11-27T01:39:51.241Z,998.88
2018-11-27T01:40:51.225Z,998.78
2018-11-27T01:41:51.213Z,998.83
2018-11-27T01:42:51.203Z,998.82
2018-11-27T01:43:51.230Z,998.81
2018-11-27T01:44:51.186Z,998.82
2018-11-27T01:45:51.179Z,998.83
2018-11-27T01:46:51.165Z,998.89
2018-11-27T01:47:51.158Z,998.89
2018-11-27T01:48:51.140Z,998.79
2018-11-27T01:49:51.169Z,998.88
2018-11-27T01:50:51.115Z,998.82
2018-11-27T01:51:51.108Z,998.89
2018-11-27T01:52:51.097Z,998.88
2018-11-27T01:53:51.089Z,998.86
2018-11-27T01:54:51.074Z,998.90
2018-11-27T01:55:51.113Z,998.88
2018-11-27T01:57:01.303Z,998.83
2018-11-27T01:57:51.051Z,998.84
2018-11-27T01:58:51.030Z,998.94
2018-11-27T01:59:51.023Z,998.95
2018-11-27T02:00:51.099Z,998.86
2018-11-27T02:01:51.041Z,998.95
2018-11-27T02:02:50.990Z,998.95
2018-11-27T02:03:50.989Z,998.90
2018-11-27T02:04:50.969Z,998.98
2018-11-27T02:05:50.970Z,998.91
2018-11-27T02:06:50.956Z,999.08
2018-11-27T02:07:50.985Z,999.02
2018-11-27T02:08:50.929Z,999.04
2018-11-27T02:09:50.914Z,998.99
2018-11-27T02:10:50.910Z,999.03
2018-11-27T02:11:50.895Z,999.04
2018-11-27T02:12:50.884Z,998.92
2018-11-27T02:13:50.909Z,999.05
2018-11-27T02:14:50.868Z,999.02
2018-11-27T02:15:50.855Z,999.09
2018-11-27T02:16:50.839Z,999.08
2018-11-27T02:17:50.827Z,999.10
2018-11-27T02:18:50.827Z,999.12
2018-11-27T02:19:50.849Z,999.10
2018-11-27T02:20:50.806Z,999.14
2018-11-27T02:21:50.793Z,999.10
2018-11-27T02:22:50.780Z,999.14
2018-11-27T02:23:50.768Z,999.19
2018-11-27T02:24:50.755Z,999.21
2018-11-27T02:25:50.803Z,999.25
2018-11-27T02:26:50.735Z,999.30
2018-11-27T02:28:00.933Z,999.21
2018-11-27T02:28:50.715Z,999.16
2018-11-27T02:29:50.705Z,999.23
2018-11-27T02:30:50.694Z,999.18
2018-11-27T02:31:50.726Z,999.22
2018-11-27T02:32:50.672Z,999.25
2018-11-27T02:33:50.702Z,999.24
2018-11-27T02:34:50.655Z,999.23
2018-11-27T02:35:50.642Z,999.17
2018-11-27T02:36:50.635Z,999.27
2018-11-27T02:37:50.657Z,999.21
2018-11-27T02:38:50.609Z,999.21
2018-11-27T02:39:50.596Z,999.14
2018-11-27T02:40:50.582Z,999.16
2018-11-27T02:41:50.589Z,999.19
2018-11-27T02:42:50.567Z,999.14
2018-11-27T02:43:50.587Z,999.13
2018-11-27T02:44:50.543Z,999.13
2018-11-27T02:45:50.540Z,999.22
2018-11-27T02:46:50.519Z,999.22
2018-11-27T02:47:50.519Z,999.16
2018-11-27T02:48:50.507Z,999.20
2018-11-27T02:49:50.513Z,999.06
2018-11-27T02:50:50.477Z,999.06
2018-11-27T02:51:50.466Z,999.09
2018-11-27T02:52:50.460Z,999.06
2018-11-27T02:53:50.450Z,999.18
2018-11-27T02:54:50.442Z,999.17
2018-11-27T02:55:50.466Z,999.16
2018-11-27T02:56:50.417Z,999.28
2018-11-27T02:57:50.409Z,999.26
2018-11-27T02:59:00.694Z,999.23
2018-11-27T02:59:50.379Z,999.18
2018-11-27T03:00:50.375Z,999.23
2018-11-27T03:01:50.400Z,999.28
2018-11-27T03:02:50.354Z,999.28
2018-11-27T03:03:50.340Z,999.11
2018-11-27T03:04:50.335Z,999.20
2018-11-27T03:05:50.324Z,999.23
2018-11-27T03:06:50.404Z,999.25
2018-11-27T03:07:50.335Z,999.20
2018-11-27T03:08:50.291Z,999.19
2018-11-27T03:09:50.280Z,999.18
2018-11-27T03:10:50.265Z,999.20
2018-11-27T03:11:50.259Z,999.15
2018-11-27T03:12:50.256Z,999.18
2018-11-27T03:13:50.265Z,999.21
2018-11-27T03:14:50.220Z,999.23
2018-11-27T03:15:50.213Z,999.23
2018-11-27T03:16:50.217Z,999.21
2018-11-27T03:17:50.196Z,999.24
2018-11-27T03:18:50.184Z,999.32
2018-11-27T03:19:50.209Z,999.33
2018-11-27T03:20:50.166Z,999.28
2018-11-27T03:21:50.147Z,999.28
2018-11-27T03:22:50.140Z,999.26
2018-11-27T03:23:50.129Z,999.20
2018-11-27T03:24:50.122Z,999.18
2018-11-27T03:25:50.149Z,999.19
2018-11-27T03:26:50.101Z,999.22
2018-11-27T03:27:50.087Z,999.22
2018-11-27T03:28:50.074Z,999.20
2018-11-27T03:30:00.021Z,999.19
2018-11-27T03:30:50.081Z,999.19
2018-11-27T03:31:50.098Z,999.13
2018-11-27T03:32:50.040Z,999.27
2018-11-27T03:33:50.027Z,999.23
2018-11-27T03:34:50.021Z,999.19
2018-11-27T03:35:50.001Z,999.21
2018-11-27T03:36:49.991Z,999.22
2018-11-27T03:37:50.027Z,999.30
2018-11-27T03:38:49.980Z,999.28
2018-11-27T03:39:49.963Z,999.33
2018-11-27T03:40:49.952Z,999.31
2018-11-27T03:41:49.937Z,999.25
2018-11-27T03:42:49.928Z,999.25
2018-11-27T03:43:49.950Z,999.31
2018-11-27T03:44:49.910Z,999.29
2018-11-27T03:45:49.904Z,999.31
2018-11-27T03:46:49.895Z,999.25
2018-11-27T03:47:49.879Z,999.21
2018-11-27T03:48:49.859Z,999.32
2018-11-27T03:49:49.888Z,999.23
2018-11-27T03:50:49.856Z,999.34
2018-11-27T03:51:49.833Z,999.28
2018-11-27T03:52:49.823Z,999.33
2018-11-27T03:53:49.807Z,999.40
2018-11-27T03:54:49.798Z,999.33
2018-11-27T03:55:49.871Z,999.33
2018-11-27T03:56:49.776Z,999.33
2018-11-27T03:57:49.771Z,999.32
2018-11-27T03:58:49.769Z,999.31
2018-11-27T03:59:49.751Z,999.34
2018-11-27T04:00:59.897Z,999.34
2018-11-27T04:01:49.725Z,999.28
2018-11-27T04:02:49.795Z,999.31
2018-11-27T04:03:49.703Z,999.35
2018-11-27T04:04:49.700Z,999.31
2018-11-27T04:05:49.679Z,999.35
2018-11-27T04:06:49.706Z,999.39
2018-11-27T04:07:49.669Z,999.39
2018-11-27T04:08:49.649Z,999.47
2018-11-27T04:09:49.649Z,999.41
2018-11-27T04:10:49.633Z,999.41
2018-11-27T04:11:49.614Z,999.52
2018-11-27T04:12:49.786Z,999.44
2018-11-27T04:13:49.596Z,999.39
2018-11-27T04:14:49.584Z,999.34
2018-11-27T04:15:49.578Z,999.37
2018-11-27T04:16:49.566Z,999.44
2018-11-27T04:17:49.551Z,999.36
2018-11-27T04:18:49.606Z,999.44
2018-11-27T04:19:49.529Z,999.36
2018-11-27T04:20:49.522Z,999.49
2018-11-27T04:21:49.507Z,999.39
2018-11-27T04:22:49.510Z,999.28
2018-11-27T04:23:49.488Z,999.39
2018-11-27T04:24:49.493Z,999.38
2018-11-27T04:25:49.468Z,999.35
2018-11-27T04:26:49.457Z,999.33
2018-11-27T04:27:49.451Z,999.50
2018-11-27T04:28:49.439Z,999.37
2018-11-27T04:29:49.424Z,999.41
2018-11-27T04:30:49.451Z,999.44
2018-11-27T04:31:59.804Z,999.49
2018-11-27T04:32:49.393Z,999.46
2018-11-27T04:33:49.379Z,999.48
2018-11-27T04:34:49.381Z,999.50
2018-11-27T04:35:49.359Z,999.41
2018-11-27T04:36:49.390Z,999.48
2018-11-27T04:37:49.345Z,999.44
2018-11-27T04:38:49.330Z,999.42
2018-11-27T04:39:49.317Z,999.43
2018-11-27T04:40:49.316Z,999.38
2018-11-27T04:41:49.300Z,999.41
2018-11-27T04:42:49.302Z,999.41
2018-11-27T04:43:49.279Z,999.44
2018-11-27T04:44:49.270Z,999.39
2018-11-27T04:45:49.260Z,999.43
2018-11-27T04:46:49.252Z,999.44
2018-11-27T04:47:49.240Z,999.47
2018-11-27T04:48:49.275Z,999.44
2018-11-27T04:49:49.224Z,999.41
2018-11-27T04:50:49.199Z,999.47
2018-11-27T04:51:49.196Z,999.38
2018-11-27T04:52:49.183Z,999.35
2018-11-27T04:53:49.173Z,999.41
2018-11-27T04:54:49.196Z,999.46
2018-11-27T04:55:49.151Z,999.45
2018-11-27T04:56:49.140Z,999.49
2018-11-27T04:57:49.127Z,999.42
2018-11-27T04:58:49.130Z,999.51
2018-11-27T04:59:49.110Z,999.54
2018-11-27T05:00:49.134Z,999.58
2018-11-27T05:01:49.082Z,999.57
2018-11-27T05:02:59.572Z,999.63
2018-11-27T05:03:49.059Z,999.62
2018-11-27T05:04:49.055Z,999.67
2018-11-27T05:05:49.050Z,999.60
2018-11-27T05:06:49.127Z,999.65
2018-11-27T05:07:49.030Z,999.63
2018-11-27T05:08:49.013Z,999.63
2018-11-27T05:09:48.998Z,999.68
2018-11-27T05:10:48.987Z,999.72
2018-11-27T05:11:48.976Z,999.69
2018-11-27T05:12:49.137Z,999.67
2018-11-27T05:13:48.955Z,999.67
2018-11-27T05:14:48.946Z,999.69
2018-11-27T05:15:48.942Z,999.71
2018-11-27T05:16:48.927Z,999.68
2018-11-27T05:17:48.915Z,999.79
2018-11-27T05:18:48.981Z,999.73
2018-11-27T05:19:48.890Z,999.70
2018-11-27T05:20:48.884Z,999.66
2018-11-27T05:21:48.877Z,999.66
2018-11-27T05:22:48.866Z,999.71
2018-11-27T05:23:48.848Z,999.72
2018-11-27T05:24:48.874Z,999.75
2018-11-27T05:25:48.831Z,999.70
2018-11-27T05:26:48.821Z,999.71
2018-11-27T05:27:48.808Z,999.74
2018-11-27T05:28:48.802Z,999.68
2018-11-27T05:29:48.781Z,999.72
2018-11-27T05:30:48.918Z,999.77
2018-11-27T05:31:48.764Z,999.75
2018-11-27T05:32:48.751Z,999.77
2018-11-27T05:33:59.778Z,999.73
2018-11-27T05:34:48.733Z,999.74
2018-11-27T05:35:48.723Z,999.77
2018-11-27T05:36:48.830Z,999.70
2018-11-27T05:37:48.699Z,999.77
2018-11-27T05:38:48.698Z,999.74
2018-11-27T05:39:48.683Z,999.80
2018-11-27T05:40:48.669Z,999.76
2018-11-27T05:41:48.658Z,999.77
2018-11-27T05:42:48.665Z,999.77
2018-11-27T05:43:48.641Z,999.83
2018-11-27T05:44:48.627Z,999.72
2018-11-27T05:45:48.610Z,999.73
2018-11-27T05:46:48.605Z,999.80
2018-11-27T05:47:48.588Z,999.73
2018-11-27T05:48:48.763Z,999.86
2018-11-27T05:49:48.573Z,999.83
2018-11-27T05:50:48.564Z,999.86
2018-11-27T05:51:48.548Z,999.88
2018-11-27T05:52:48.545Z,999.76
2018-11-27T05:53:48.563Z,999.93
2018-11-27T05:54:48.557Z,999.91
2018-11-27T05:55:48.505Z,999.92
2018-11-27T05:56:48.495Z,999.91
2018-11-27T05:57:48.488Z,999.96
2018-11-27T05:58:48.477Z,999.94
2018-11-27T05:59:48.478Z,999.96
2018-11-27T06:00:48.652Z,999.93
2018-11-27T06:01:48.446Z,999.93
2018-11-27T06:02:48.478Z,1000.03
2018-11-27T06:03:48.420Z,1000.02
2018-11-27T06:04:59.775Z,1000.03
2018-11-27T06:05:48.397Z,1000.08
2018-11-27T06:06:48.441Z,1000.09
2018-11-27T06:07:48.413Z,1000.17
2018-11-27T06:08:48.367Z,1000.12
2018-11-27T06:09:48.354Z,1000.07
2018-11-27T06:10:48.360Z,1000.13
2018-11-27T06:11:48.333Z,1000.13
2018-11-27T06:12:48.367Z,1000.16
2018-11-27T06:13:48.347Z,1000.25
2018-11-27T06:14:48.302Z,1000.22
2018-11-27T06:15:48.299Z,1000.22
2018-11-27T06:16:48.290Z,1000.30
2018-11-27T06:17:48.273Z,1000.32
2018-11-27T06:18:48.318Z,1000.27
2018-11-27T06:19:48.254Z,1000.30
2018-11-27T06:20:48.292Z,1000.30
2018-11-27T06:21:48.235Z,1000.30
2018-11-27T06:22:48.227Z,1000.30
2018-11-27T06:23:48.207Z,1000.40
2018-11-27T06:24:48.293Z,1000.36
2018-11-27T06:25:48.189Z,1000.33
2018-11-27T06:26:48.198Z,1000.45
2018-11-27T06:27:48.246Z,1000.45
2018-11-27T06:28:48.185Z,1000.51
2018-11-27T06:29:48.145Z,1000.47
2018-11-27T06:30:48.211Z,1000.51
2018-11-27T06:31:48.135Z,1000.52
2018-11-27T06:32:48.116Z,1000.52
2018-11-27T06:33:48.107Z,1000.49
2018-11-27T06:34:48.111Z,1000.53
2018-11-27T06:35:58.462Z,1000.57
2018-11-27T06:36:48.084Z,1000.52
2018-11-27T06:37:48.060Z,1000.57
2018-11-27T06:38:48.069Z,1000.61
2018-11-27T06:39:48.065Z,1000.59
2018-11-27T06:40:48.044Z,1000.66
2018-11-27T06:41:48.103Z,1000.62
2018-11-27T06:42:48.024Z,1000.68
2018-11-27T06:43:48.095Z,1000.75
2018-11-27T06:44:48.006Z,1000.74
2018-11-27T06:45:47.969Z,1000.79
2018-11-27T06:46:47.988Z,1000.78
2018-11-27T06:47:48.067Z,1000.74
2018-11-27T06:48:47.947Z,1000.82
2018-11-27T06:49:47.943Z,1000.85
2018-11-27T06:50:47.918Z,1000.85
2018-11-27T06:51:47.929Z,1000.89
2018-11-27T06:52:47.907Z,1000.84
2018-11-27T06:53:47.942Z,1000.92
2018-11-27T06:54:47.935Z,1000.90
2018-11-27T06:55:47.863Z,1000.97
2018-11-27T06:56:47.866Z,1001.00
2018-11-27T06:57:47.850Z,1000.96
2018-11-27T06:58:47.899Z,1000.97
2018-11-27T06:59:47.868Z,1000.98
2018-11-27T07:00:47.821Z,1001.04
2018-11-27T07:01:47.811Z,1001.00
2018-11-27T07:02:47.793Z,1001.03
2018-11-27T07:03:47.782Z,1001.03
2018-11-27T07:04:47.778Z,1001.04
2018-11-27T07:05:47.792Z,1001.05
2018-11-27T07:06:58.035Z,1001.08
2018-11-27T07:07:47.742Z,1001.09
2018-11-27T07:08:47.739Z,1001.07
2018-11-27T07:09:47.717Z,1001.11
2018-11-27T07:10:47.718Z,1001.16
2018-11-27T07:11:48.038Z,1001.07
2018-11-27T07:12:47.692Z,1001.22
2018-11-27T07:13:47.678Z,1001.18
2018-11-27T07:14:47.675Z,1001.18
2018-11-27T07:15:47.661Z,1001.17
2018-11-27T07:16:47.642Z,1001.21
2018-11-27T07:17:47.686Z,1001.29
2018-11-27T07:18:47.627Z,1001.22
2018-11-27T07:19:47.619Z,1001.22
2018-11-27T07:20:47.601Z,1001.25
2018-11-27T07:21:47.595Z,1001.28
2018-11-27T07:22:47.586Z,1001.35
2018-11-27T07:23:47.587Z,1001.29
2018-11-27T07:24:47.555Z,1001.42
2018-11-27T07:25:47.555Z,1001.42
2018-11-27T07:26:52.790Z,1001.45
2018-11-27T07:27:48.537Z,1001.43
2018-11-27T07:28:47.520Z,1001.45
2018-11-27T07:29:47.546Z,1001.45
2018-11-27T07:30:47.497Z,1001.48
2018-11-27T07:31:47.480Z,1001.49
2018-11-27T07:32:47.472Z,1001.51
2018-11-27T07:33:47.469Z,1001.47
2018-11-27T07:34:47.462Z,1001.51
2018-11-27T07:35:47.479Z,1001.48
2018-11-27T07:36:47.429Z,1001.50
2018-11-27T07:37:57.863Z,1001.51
2018-11-27T07:38:47.405Z,1001.54
2018-11-27T07:39:47.403Z,1001.51
2018-11-27T07:40:47.389Z,1001.55
2018-11-27T07:41:47.401Z,1001.60
2018-11-27T07:42:47.370Z,1001.55
2018-11-27T07:43:47.358Z,1001.59
2018-11-27T07:44:47.359Z,1001.59
2018-11-27T07:45:47.337Z,1001.61
2018-11-27T07:46:47.329Z,1001.72
2018-11-27T07:47:47.357Z,1001.69
2018-11-27T07:48:47.309Z,1001.68
2018-11-27T07:49:47.294Z,1001.73
2018-11-27T07:50:47.283Z,1001.71
2018-11-27T07:51:47.266Z,1001.76
2018-11-27T07:52:47.257Z,1001.77
2018-11-27T07:53:47.319Z,1001.78
2018-11-27T07:54:47.240Z,1001.82
2018-11-27T07:55:47.228Z,1001.83
2018-11-27T07:56:47.227Z,1001.87
2018-11-27T07:57:47.210Z,1001.89
2018-11-27T07:58:47.200Z,1001.92
2018-11-27T07:59:47.223Z,1001.95
2018-11-27T08:00:47.175Z,1001.93
2018-11-27T08:01:47.166Z,1001.95
2018-11-27T08:02:47.156Z,1002.06
2018-11-27T08:03:47.148Z,1001.96
2018-11-27T08:04:47.127Z,1002.02
2018-11-27T08:05:47.158Z,1002.02
2018-11-27T08:06:47.105Z,1002.06
2018-11-27T08:07:47.094Z,1002.04
2018-11-27T08:08:57.987Z,1002.08
2018-11-27T08:09:47.079Z,1002.11
2018-11-27T08:10:47.079Z,1002.10
2018-11-27T08:11:47.104Z,1002.11
2018-11-27T08:12:47.049Z,1002.13
2018-11-27T08:13:47.036Z,1002.20
2018-11-27T08:14:47.057Z,1002.18
2018-11-27T08:15:47.015Z,1002.23
2018-11-27T08:16:47.006Z,1002.25
2018-11-27T08:17:47.044Z,1002.22
2018-11-27T08:18:46.981Z,1002.28
2018-11-27T08:19:46.979Z,1002.26
2018-11-27T08:20:46.960Z,1002.29
2018-11-27T08:21:46.958Z,1002.27
2018-11-27T08:22:46.953Z,1002.30
2018-11-27T08:23:46.959Z,1002.30
2018-11-27T08:24:47.330Z,1002.27
2018-11-27T08:25:46.969Z,1002.29
2018-11-27T08:26:46.896Z,1002.31
2018-11-27T08:27:46.889Z,1002.28
2018-11-27T08:28:46.877Z,1002.27
2018-11-27T08:29:46.905Z,1002.37
2018-11-27T08:30:46.865Z,1002.36
2018-11-27T08:31:46.837Z,1002.38
2018-11-27T08:32:46.832Z,1002.44
2018-11-27T08:33:46.825Z,1002.45
2018-11-27T08:34:46.813Z,1002.53
2018-11-27T08:35:46.853Z,1002.46
2018-11-27T08:36:46.890Z,1002.51
2018-11-27T08:37:46.773Z,1002.49
2018-11-27T08:38:46.766Z,1002.49
2018-11-27T08:39:56.861Z,1002.53
2018-11-27T08:40:46.746Z,1002.54
2018-11-27T08:41:46.771Z,1002.55
2018-11-27T08:42:46.755Z,1002.58
2018-11-27T08:43:46.711Z,1002.63
2018-11-27T08:44:46.720Z,1002.65
2018-11-27T08:45:46.692Z,1002.63
2018-11-27T08:46:46.684Z,1002.67
2018-11-27T08:47:46.712Z,1002.69
2018-11-27T08:48:46.658Z,1002.70
2018-11-27T08:49:46.648Z,1002.75
2018-11-27T08:50:46.633Z,1002.74
2018-11-27T08:51:46.629Z,1002.74
2018-11-27T08:52:47.094Z,1002.78
2018-11-27T08:53:46.671Z,1002.84
2018-11-27T08:54:46.604Z,1002.90
2018-11-27T08:55:46.585Z,1002.92
2018-11-27T08:56:46.571Z,1002.95
2018-11-27T08:57:46.558Z,1003.02
2018-11-27T08:58:46.560Z,1002.95
2018-11-27T08:59:47.102Z,1003.04
2018-11-27T09:00:46.529Z,1003.04
2018-11-27T09:01:46.517Z,1002.98
2018-11-27T09:02:46.507Z,1003.09
2018-11-27T09:03:46.608Z,1003.12
2018-11-27T09:04:46.485Z,1003.05
2018-11-27T09:05:46.519Z,1003.01
2018-11-27T09:06:46.471Z,1003.06
2018-11-27T09:07:46.474Z,1003.06
2018-11-27T09:08:46.448Z,1003.05
2018-11-27T09:09:46.429Z,1003.13
2018-11-27T09:10:56.556Z,1003.14
2018-11-27T09:11:46.410Z,1003.15
2018-11-27T09:12:46.404Z,1003.20
2018-11-27T09:13:46.390Z,1003.22
2018-11-27T09:14:46.379Z,1003.18
2018-11-27T09:15:46.375Z,1003.17
2018-11-27T09:16:46.402Z,1003.21
2018-11-27T09:17:46.348Z,1003.25
2018-11-27T09:18:46.336Z,1003.28
2018-11-27T09:19:46.376Z,1003.28
2018-11-27T09:20:46.332Z,1003.25
2018-11-27T09:21:46.307Z,1003.31
2018-11-27T09:22:46.390Z,1003.27
2018-11-27T09:23:46.322Z,1003.30
2018-11-27T09:24:46.272Z,1003.34
2018-11-27T09:25:46.284Z,1003.32
2018-11-27T09:26:46.255Z,1003.34
2018-11-27T09:27:46.243Z,1003.26
2018-11-27T09:28:46.412Z,1003.39
2018-11-27T09:29:46.225Z,1003.38
2018-11-27T09:30:46.211Z,1003.39
2018-11-27T09:31:46.208Z,1003.43
2018-11-27T09:32:46.193Z,1003.40
2018-11-27T09:33:46.180Z,1003.43
2018-11-27T09:34:46.181Z,1003.40
2018-11-27T09:35:46.159Z,1003.42
2018-11-27T09:36:46.154Z,1003.41
2018-11-27T09:37:46.137Z,1003.41
2018-11-27T09:38:46.128Z,1003.46
2018-11-27T09:39:46.110Z,1003.50
2018-11-27T09:40:46.140Z,1003.56
2018-11-27T09:41:56.167Z,1003.56
2018-11-27T09:42:46.082Z,1003.52
2018-11-27T09:43:46.076Z,1003.56
2018-11-27T09:44:46.059Z,1003.56
2018-11-27T09:45:46.054Z,1003.62
2018-11-27T09:46:46.074Z,1003.67
2018-11-27T09:47:46.029Z,1003.64
2018-11-27T09:48:46.021Z,1003.61
2018-11-27T09:49:46.015Z,1003.63
2018-11-27T09:50:46.005Z,1003.65
2018-11-27T09:51:46.039Z,1003.68
2018-11-27T09:52:46.040Z,1003.65
2018-11-27T09:53:45.964Z,1003.68
2018-11-27T09:54:45.998Z,1003.70
2018-11-27T09:55:45.945Z,1003.69
2018-11-27T09:56:45.937Z,1003.74
2018-11-27T09:57:45.918Z,1003.76
2018-11-27T09:58:45.955Z,1003.71
2018-11-27T09:59:45.897Z,1003.72
2018-11-27T10:00:45.892Z,1003.77
2018-11-27T10:01:45.878Z,1003.78
2018-11-27T10:02:45.872Z,1003.84
2018-11-27T10:03:45.867Z,1003.75
2018-11-27T10:04:45.864Z,1003.76
2018-11-27T10:05:46.515Z,1003.84
2018-11-27T10:06:45.822Z,1003.86
2018-11-27T10:07:45.819Z,1003.84
2018-11-27T10:08:45.802Z,1003.89
2018-11-27T10:09:45.798Z,1003.84
2018-11-27T10:10:45.825Z,1003.82
2018-11-27T10:11:45.787Z,1003.89
2018-11-27T10:12:57.037Z,1003.92
2018-11-27T10:13:45.752Z,1003.93
2018-11-27T10:14:45.741Z,1003.95
2018-11-27T10:15:45.731Z,1004.00
2018-11-27T10:16:45.754Z,1004.06
2018-11-27T10:17:46.598Z,1004.05
2018-11-27T10:18:45.693Z,1004.03
2018-11-27T10:19:45.683Z,1004.04
2018-11-27T10:20:45.702Z,1004.14
2018-11-27T10:21:45.680Z,1004.11
2018-11-27T10:22:45.694Z,1004.12
2018-11-27T10:23:45.645Z,1004.12
2018-11-27T10:24:45.632Z,1004.17
2018-11-27T10:25:45.620Z,1004.14
2018-11-27T10:26:45.614Z,1004.19
2018-11-27T10:27:45.641Z,1004.16
2018-11-27T10:28:45.629Z,1004.15
2018-11-27T10:29:45.578Z,1004.21
2018-11-27T10:30:45.571Z,1004.21
2018-11-27T10:31:45.556Z,1004.25
2018-11-27T10:32:45.556Z,1004.29
2018-11-27T10:33:45.539Z,1004.33
2018-11-27T10:34:45.560Z,1004.35
2018-11-27T10:35:45.536Z,1004.33
2018-11-27T10:36:45.507Z,1004.34
2018-11-27T10:37:45.495Z,1004.39
2018-11-27T10:38:45.486Z,1004.41
2018-11-27T10:39:45.470Z,1004.39
2018-11-27T10:40:45.506Z,1004.42
2018-11-27T10:41:45.448Z,1004.40
2018-11-27T10:42:45.518Z,1004.44
2018-11-27T10:43:55.813Z,1004.39
2018-11-27T10:44:45.416Z,1004.46
2018-11-27T10:45:45.424Z,1004.45
2018-11-27T10:46:45.486Z,1004.46
2018-11-27T10:47:45.390Z,1004.53
2018-11-27T10:48:45.376Z,1004.56
2018-11-27T10:49:45.369Z,1004.60
2018-11-27T10:50:45.354Z,1004.56
2018-11-27T10:51:45.351Z,1004.54
2018-11-27T10:52:45.372Z,1004.67
2018-11-27T10:53:45.323Z,1004.62
2018-11-27T10:54:45.311Z,1004.70
2018-11-27T10:55:45.305Z,1004.76
2018-11-27T10:56:45.294Z,1004.74
2018-11-27T10:57:45.277Z,1004.75
2018-11-27T10:58:45.313Z,1004.81
2018-11-27T10:59:45.262Z,1004.81
2018-11-27T11:00:45.251Z,1004.81
2018-11-27T11:01:45.245Z,1004.87
2018-11-27T11:02:45.271Z,1004.87
2018-11-27T11:03:45.218Z,1004.90
2018-11-27T11:04:45.245Z,1004.91
2018-11-27T11:05:45.199Z,1005.03
2018-11-27T11:06:45.184Z,1004.99
2018-11-27T11:07:45.182Z,1004.88
2018-11-27T11:08:45.169Z,1004.97
2018-11-27T11:09:45.156Z,1005.03
2018-11-27T11:10:45.192Z,1005.00
2018-11-27T11:11:45.134Z,1005.00
2018-11-27T11:12:45.125Z,1005.05
2018-11-27T11:13:45.109Z,1005.05
2018-11-27T11:14:55.620Z,1004.99
2018-11-27T11:15:45.090Z,1004.98
2018-11-27T11:16:45.100Z,1005.02
2018-11-27T11:17:45.067Z,1004.97
2018-11-27T11:18:45.072Z,1005.03
2018-11-27T11:19:45.046Z,1005.13
2018-11-27T11:20:45.034Z,1005.17
2018-11-27T11:21:45.032Z,1005.16
2018-11-27T11:22:45.028Z,1005.19
2018-11-27T11:23:45.007Z,1005.17
2018-11-27T11:24:44.990Z,1005.24
2018-11-27T11:25:44.983Z,1005.13
2018-11-27T11:26:44.968Z,1005.20
2018-11-27T11:27:44.971Z,1005.16
2018-11-27T11:28:44.985Z,1005.23
2018-11-27T11:29:44.933Z,1005.23
2018-11-27T11:30:44.932Z,1005.28
2018-11-27T11:31:44.922Z,1005.33
2018-11-27T11:32:44.903Z,1005.28
2018-11-27T11:33:44.891Z,1005.30
2018-11-27T11:34:44.921Z,1005.31
2018-11-27T11:35:44.875Z,1005.36
2018-11-27T11:36:44.877Z,1005.40
2018-11-27T11:37:44.856Z,1005.49
2018-11-27T11:38:44.846Z,1005.50
2018-11-27T11:39:44.832Z,1005.50
2018-11-27T11:40:44.861Z,1005.50
2018-11-27T11:41:44.808Z,1005.55
2018-11-27T11:42:44.803Z,1005.55
2018-11-27T11:43:44.793Z,1005.62
2018-11-27T11:44:44.780Z,1005.65
2018-11-27T11:45:57.639Z,1005.66
2018-11-27T11:46:44.757Z,1005.61
2018-11-27T11:47:44.749Z,1005.60
2018-11-27T11:48:44.735Z,1005.67
2018-11-27T11:49:44.722Z,1005.70
2018-11-27T11:50:44.710Z,1005.70
2018-11-27T11:51:44.742Z,1005.73
2018-11-27T11:52:45.491Z,1005.70
2018-11-27T11:53:44.678Z,1005.72
2018-11-27T11:54:44.671Z,1005.78
2018-11-27T11:55:44.659Z,1005.86
2018-11-27T11:56:44.649Z,1005.88
2018-11-27T11:57:44.689Z,1005.89
2018-11-27T11:58:44.625Z,1005.94
2018-11-27T11:59:44.616Z,1005.89
2018-11-27T12:00:44.610Z,1005.86
2018-11-27T12:01:44.597Z,1005.93
2018-11-27T12:02:44.580Z,1005.91
2018-11-27T12:03:44.612Z,1006.00
2018-11-27T12:04:44.564Z,1005.97
2018-11-27T12:05:44.554Z,1006.02
2018-11-27T12:06:44.556Z,1006.00
2018-11-27T12:07:44.541Z,1006.06
2018-11-27T12:08:44.517Z,1006.05
2018-11-27T12:09:44.544Z,1006.13
2018-11-27T12:10:44.496Z,1006.11
2018-11-27T12:11:44.495Z,1006.11
2018-11-27T12:12:44.481Z,1006.19
2018-11-27T12:13:44.463Z,1006.17
2018-11-27T12:14:44.456Z,1006.19
2018-11-27T12:15:44.631Z,1006.17
2018-11-27T12:16:54.411Z,1006.22